createdAt,value
2022-10-22T00:00:49.646Z,1.42
2022-10-22T00:03:17.340Z,1.63
2022-10-22T00:05:46.449Z,2.22
2022-10-22T00:08:14.864Z,1.45
2022-10-22T00:10:42.817Z,1.58
2022-10-22T00:13:11.220Z,1.58
2022-10-22T00:15:38.793Z,1.25
2022-10-22T00:18:07.208Z,1.27
2022-10-22T00:20:35.056Z,1.50
2022-10-22T00:23:02.626Z,2.53
2022-10-22T00:25:30.114Z,1.30
2022-10-22T00:27:57.545Z,1.45
2022-10-22T00:30:24.980Z,1.88
2022-10-22T00:32:52.426Z,1.48
2022-10-22T00:35:19.881Z,1.80
2022-10-22T00:37:47.404Z,2.17
2022-10-22T00:40:15.035Z,1.50
2022-10-22T00:42:43.061Z,1.42
2022-10-22T00:45:10.786Z,2.05
2022-10-22T00:47:43.734Z,2.38
2022-10-22T00:52:38.709Z,1.33
2022-10-22T00:55:07.031Z,1.30
2022-10-22T00:57:34.989Z,1.55
2022-10-22T01:00:03.449Z,1.25
2022-10-22T01:02:31.112Z,1.95
2022-10-22T01:04:58.591Z,1.65
2022-10-22T01:07:26.714Z,1.58
2022-10-22T01:10:03.715Z,2.33
2022-10-22T01:12:41.586Z,1.38
2022-10-22T01:15:17.441Z,1.75
2022-10-22T01:17:58.632Z,2.05
2022-10-22T01:20:32.383Z,1.60
2022-10-22T01:22:59.971Z,1.70
2022-10-22T01:25:33.493Z,1.55
2022-10-22T01:28:14.414Z,1.50
2022-10-22T01:30:42.352Z,1.98
2022-10-22T01:33:11.232Z,1.33
2022-10-22T01:35:39.817Z,1.50
2022-10-22T01:38:09.752Z,1.58
2022-10-22T01:40:37.387Z,2.25
2022-10-22T01:43:07.660Z,1.52
2022-10-22T01:45:43.184Z,1.30
2022-10-22T01:48:17.500Z,1.33
2022-10-22T01:51:03.490Z,1.98
2022-10-22T01:53:34.149Z,0.95
2022-10-22T01:56:07.190Z,1.33
2022-10-22T02:01:06.541Z,1.77
2022-10-22T02:03:41.530Z,2.13
2022-10-22T02:06:12.379Z,1.50
2022-10-22T02:08:40.177Z,1.88
2022-10-22T02:11:07.991Z,1.40
2022-10-22T02:13:42.246Z,2.03
2022-10-22T02:16:12.680Z,1.15
2022-10-22T02:18:43.999Z,1.17
2022-10-22T02:21:11.624Z,1.40
2022-10-22T02:23:39.517Z,1.23
2022-10-22T02:26:25.629Z,1.38
2022-10-22T02:28:57.650Z,1.65
2022-10-22T02:31:27.144Z,1.90
2022-10-22T02:33:57.365Z,1.42
2022-10-22T02:36:25.853Z,1.40
2022-10-22T02:38:53.486Z,1.77
2022-10-22T02:41:21.030Z,1.58
2022-10-22T02:43:54.366Z,2.05
2022-10-22T02:46:22.825Z,1.75
2022-10-22T02:48:50.339Z,1.15
2022-10-22T02:51:17.850Z,1.38
2022-10-22T02:53:45.264Z,1.77
2022-10-22T02:56:13.380Z,2.00
2022-10-22T02:58:41.203Z,1.60
2022-10-22T03:01:10.366Z,2.00
2022-10-22T03:03:39.784Z,1.30
2022-10-22T03:06:07.457Z,1.15
2022-10-22T03:08:35.085Z,1.77
2022-10-22T03:11:02.539Z,1.95
2022-10-22T03:13:30.044Z,1.85
2022-10-22T03:15:57.535Z,1.38
2022-10-22T03:18:25.051Z,2.00
2022-10-22T03:21:00.204Z,1.50
2022-10-22T03:23:27.662Z,1.02
2022-10-22T03:25:55.147Z,1.83
2022-10-22T03:28:22.649Z,1.13
2022-10-22T03:30:50.109Z,1.33
2022-10-22T03:33:17.511Z,1.60
2022-10-22T03:35:47.280Z,1.55
2022-10-22T03:38:15.032Z,1.80
2022-10-22T03:40:43.386Z,1.20
2022-10-22T03:43:10.888Z,1.15
2022-10-22T03:48:06.182Z,1.50
2022-10-22T03:50:33.865Z,1.58
2022-10-22T03:53:01.378Z,1.70
2022-10-22T03:55:29.381Z,1.40
2022-10-22T03:57:56.847Z,1.55
2022-10-22T04:00:24.251Z,1.45
2022-10-22T04:02:51.740Z,1.67
2022-10-22T04:05:19.194Z,1.85
2022-10-22T04:07:46.740Z,1.20
2022-10-22T04:10:14.162Z,1.73
2022-10-22T04:12:41.703Z,1.30
2022-10-22T04:15:09.548Z,1.23
2022-10-22T04:17:37.698Z,1.38
2022-10-22T04:20:05.950Z,0.93
2022-10-22T04:22:36.793Z,1.23
2022-10-22T04:25:05.088Z,1.27
2022-10-22T04:27:33.527Z,1.10
2022-10-22T04:30:01.078Z,1.10
2022-10-22T04:32:29.367Z,0.95
2022-10-22T04:34:56.843Z,2.45
2022-10-22T04:37:24.381Z,1.33
2022-10-22T04:39:51.862Z,1.58
2022-10-22T04:42:19.302Z,1.15
2022-10-22T04:44:47.227Z,0.77
2022-10-22T04:47:14.983Z,0.82
2022-10-22T04:49:42.447Z,1.45
2022-10-22T04:52:09.869Z,1.80
2022-10-22T04:54:37.278Z,1.63
2022-10-22T04:57:05.009Z,1.95
2022-10-22T04:59:32.516Z,1.20
2022-10-22T05:01:59.775Z,1.45
2022-10-22T05:04:27.272Z,1.17
2022-10-22T05:06:54.783Z,1.63
2022-10-22T05:09:22.385Z,1.95
2022-10-22T05:11:51.114Z,1.13
2022-10-22T05:14:20.098Z,1.75
2022-10-22T05:16:49.257Z,1.33
2022-10-22T05:19:21.744Z,1.02
2022-10-22T05:21:49.404Z,1.63
2022-10-22T05:24:16.791Z,1.08
2022-10-22T05:26:44.298Z,1.33
2022-10-22T05:29:11.728Z,1.45
2022-10-22T05:31:39.639Z,1.33
2022-10-22T05:34:07.823Z,1.02
2022-10-22T05:36:35.288Z,1.40
2022-10-22T05:39:02.772Z,1.38
2022-10-22T05:41:30.351Z,1.80
2022-10-22T05:43:59.261Z,1.50
2022-10-22T05:46:27.903Z,1.00
2022-10-22T05:48:56.554Z,1.20
2022-10-22T05:51:25.080Z,1.42
2022-10-22T05:53:54.110Z,1.63
2022-10-22T05:56:21.892Z,1.30
2022-10-22T05:58:49.448Z,1.30
2022-10-22T06:01:18.190Z,2.33
2022-10-22T06:03:46.079Z,1.50
2022-10-22T06:06:26.817Z,1.25
2022-10-22T06:08:55.010Z,1.85
2022-10-22T06:11:23.795Z,1.35
2022-10-22T06:13:51.287Z,1.25
2022-10-22T06:16:18.715Z,1.08
2022-10-22T06:18:46.395Z,2.20
2022-10-22T06:21:15.151Z,1.50
2022-10-22T06:23:44.587Z,1.13
2022-10-22T06:26:12.208Z,1.33
2022-10-22T06:28:40.707Z,1.33
2022-10-22T06:31:08.150Z,1.27
2022-10-22T06:33:42.623Z,1.30
2022-10-22T06:36:11.950Z,1.10
2022-10-22T06:38:40.048Z,1.50
2022-10-22T06:41:08.999Z,1.60
2022-10-22T06:43:36.480Z,1.50
2022-10-22T06:46:05.954Z,1.48
2022-10-22T06:48:34.173Z,2.22
2022-10-22T06:51:05.214Z,1.58
2022-10-22T06:53:33.203Z,1.23
2022-10-22T06:56:00.652Z,1.45
2022-10-22T06:58:28.099Z,1.77
2022-10-22T07:01:03.358Z,1.33
2022-10-22T07:03:30.998Z,1.60
2022-10-22T07:06:02.508Z,1.05
2022-10-22T07:08:30.134Z,1.30
2022-10-22T07:10:59.232Z,1.13
2022-10-22T07:13:26.699Z,1.30
2022-10-22T07:15:55.411Z,1.73
2022-10-22T07:18:23.347Z,1.25
2022-10-22T07:20:51.034Z,1.30
2022-10-22T07:23:18.621Z,1.30
2022-10-22T07:25:46.242Z,1.33
2022-10-22T07:28:14.017Z,1.23
2022-10-22T07:30:41.459Z,1.10
2022-10-22T07:33:09.015Z,0.85
2022-10-22T07:35:37.662Z,1.20
2022-10-22T07:38:05.293Z,1.33
2022-10-22T07:40:33.154Z,1.55
2022-10-22T07:43:00.871Z,1.55
2022-10-22T07:45:28.607Z,0.80
2022-10-22T07:47:56.231Z,1.63
2022-10-22T07:50:23.750Z,0.88
2022-10-22T07:52:52.888Z,0.90
2022-10-22T07:55:22.299Z,1.08
2022-10-22T07:57:49.742Z,1.40
2022-10-22T08:00:19.451Z,0.80
2022-10-22T08:02:49.322Z,1.43
2022-10-22T08:05:17.126Z,1.10
2022-10-22T08:07:44.602Z,1.65
2022-10-22T08:10:12.788Z,1.00
2022-10-22T08:12:40.552Z,2.05
2022-10-22T08:15:08.593Z,1.25
2022-10-22T08:17:36.868Z,1.20
2022-10-22T08:20:04.848Z,2.28
2022-10-22T08:22:32.692Z,0.82
2022-10-22T08:25:01.105Z,1.88
2022-10-22T08:27:28.547Z,1.02
2022-10-22T08:29:56.032Z,0.93
2022-10-22T08:32:23.535Z,1.00
2022-10-22T08:34:51.048Z,2.75
2022-10-22T08:37:18.561Z,0.90
2022-10-22T08:39:46.270Z,0.90
2022-10-22T08:42:25.742Z,1.00
2022-10-22T08:44:53.197Z,0.85
2022-10-22T08:47:32.747Z,1.35
2022-10-22T08:50:01.159Z,1.48
2022-10-22T08:52:28.698Z,1.33
2022-10-22T08:54:58.815Z,1.40
2022-10-22T08:57:38.311Z,0.70
2022-10-22T09:00:24.563Z,1.05
2022-10-22T09:02:58.233Z,1.10
2022-10-22T09:05:44.289Z,0.75
2022-10-22T09:08:15.935Z,1.40
2022-10-22T09:10:46.252Z,1.65
2022-10-22T09:13:16.866Z,0.82
2022-10-22T09:15:46.557Z,1.48
2022-10-22T09:18:29.096Z,1.80
2022-10-22T09:21:15.184Z,1.42
2022-10-22T09:23:58.956Z,0.68
2022-10-22T09:26:26.768Z,1.63
2022-10-22T09:28:54.264Z,1.83
2022-10-22T09:31:21.726Z,1.25
2022-10-22T09:33:51.567Z,1.75
2022-10-22T09:36:22.358Z,1.30
2022-10-22T09:38:53.913Z,1.02
2022-10-22T09:41:24.371Z,1.42
2022-10-22T09:43:52.413Z,1.52
2022-10-22T09:46:21.353Z,1.10
2022-10-22T09:48:58.949Z,1.10
2022-10-22T09:51:36.722Z,1.50
2022-10-22T09:54:14.081Z,1.27
2022-10-22T09:56:42.752Z,0.70
2022-10-22T09:59:15.782Z,0.98
2022-10-22T10:04:15.158Z,0.90
2022-10-22T10:06:44.006Z,1.50
2022-10-22T10:09:22.088Z,1.50
2022-10-22T10:11:49.827Z,1.30
2022-10-22T10:14:22.278Z,1.40
2022-10-22T10:17:01.906Z,1.00
2022-10-22T10:19:29.426Z,1.63
2022-10-22T10:22:15.386Z,1.63
2022-10-22T10:25:21.611Z,1.73
2022-10-22T10:27:52.902Z,1.50
2022-10-22T10:30:21.851Z,1.52
2022-10-22T10:32:49.216Z,0.80
2022-10-22T10:35:26.257Z,0.82
2022-10-22T10:38:03.092Z,1.02
2022-10-22T10:40:33.644Z,1.05
2022-10-22T10:43:01.038Z,1.05
2022-10-22T10:45:37.197Z,1.05
2022-10-22T10:48:07.796Z,1.08
2022-10-22T10:50:44.827Z,1.25
2022-10-22T10:53:14.995Z,1.27
2022-10-22T10:55:48.344Z,1.05
2022-10-22T10:58:18.836Z,2.17
2022-10-22T11:01:06.432Z,1.25
2022-10-22T11:03:53.995Z,1.15
2022-10-22T11:06:24.668Z,0.90
2022-10-22T11:08:55.609Z,1.42
2022-10-22T11:11:43.437Z,1.20
2022-10-22T11:14:25.222Z,1.13
2022-10-22T11:17:07.787Z,1.45
2022-10-22T11:19:51.556Z,1.02
2022-10-22T11:22:26.816Z,0.98
2022-10-22T11:25:17.777Z,0.98
2022-10-22T11:27:54.360Z,1.13
2022-10-22T11:30:22.956Z,0.70
2022-10-22T11:32:58.491Z,1.10
2022-10-22T11:35:28.137Z,1.27
2022-10-22T11:37:57.340Z,1.17
2022-10-22T11:40:37.352Z,1.17
2022-10-22T11:43:11.555Z,0.98
2022-10-22T11:45:40.542Z,0.95
2022-10-22T11:48:10.920Z,1.10
2022-10-22T11:50:49.886Z,1.05
2022-10-22T11:53:22.228Z,1.13
2022-10-22T11:55:52.181Z,1.05
2022-10-22T11:58:40.510Z,2.05
2022-10-22T12:01:10.750Z,1.13
2022-10-22T12:03:44.592Z,1.17
2022-10-22T12:06:21.615Z,1.17
2022-10-22T12:08:57.240Z,1.00
2022-10-22T12:11:41.193Z,1.05
2022-10-22T12:14:08.644Z,1.20
2022-10-22T12:16:55.172Z,1.35
2022-10-22T12:19:23.420Z,1.50
2022-10-22T12:21:53.931Z,1.10
2022-10-22T12:24:23.070Z,0.88
2022-10-22T12:26:53.155Z,0.77
2022-10-22T12:29:27.301Z,1.40
2022-10-22T12:31:55.595Z,0.93
2022-10-22T12:34:24.000Z,0.80
2022-10-22T12:36:52.517Z,0.70
2022-10-22T12:39:21.282Z,0.82
2022-10-22T12:41:48.739Z,1.10
2022-10-22T12:44:18.437Z,1.05
2022-10-22T12:46:47.561Z,0.85
2022-10-22T12:49:17.903Z,1.00
2022-10-22T12:51:46.142Z,0.93
2022-10-22T12:54:21.409Z,1.50
2022-10-22T12:56:49.622Z,1.00
2022-10-22T12:59:20.097Z,1.63
2022-10-22T13:01:49.480Z,1.40
2022-10-22T13:04:21.767Z,1.08
2022-10-22T13:06:51.757Z,1.40
2022-10-22T13:09:23.904Z,1.05
2022-10-22T13:12:05.677Z,1.27
2022-10-22T13:14:34.704Z,1.70
2022-10-22T13:17:18.959Z,1.00
2022-10-22T13:19:55.687Z,1.92
2022-10-22T13:22:32.435Z,1.08
2022-10-22T13:25:20.118Z,1.35
2022-10-22T13:27:48.556Z,0.98
2022-10-22T13:30:27.077Z,1.05
2022-10-22T13:32:56.666Z,1.00
2022-10-22T13:35:34.899Z,1.20
2022-10-22T13:38:02.895Z,1.92
2022-10-22T13:40:30.364Z,1.25
2022-10-22T13:42:57.797Z,1.23
2022-10-22T13:45:25.301Z,1.73
2022-10-22T13:47:53.886Z,1.30
2022-10-22T13:50:21.949Z,1.25
2022-10-22T13:52:54.315Z,1.30
2022-10-22T13:55:26.446Z,1.52
2022-10-22T13:58:00.231Z,0.87
2022-10-22T14:00:27.760Z,1.25
2022-10-22T14:02:56.181Z,1.80
2022-10-22T14:05:23.795Z,1.35
2022-10-22T14:07:51.600Z,1.02
2022-10-22T14:10:21.070Z,1.52
2022-10-22T14:12:52.399Z,1.10
2022-10-22T14:15:23.206Z,1.75
2022-10-22T14:17:53.978Z,1.42
2022-10-22T14:20:23.166Z,1.60
2022-10-22T14:22:51.545Z,1.60
2022-10-22T14:25:28.505Z,1.10
2022-10-22T14:27:57.151Z,1.10
2022-10-22T14:30:25.708Z,2.15
2022-10-22T14:32:53.770Z,2.25
2022-10-22T14:35:22.338Z,1.27
2022-10-22T14:37:49.769Z,1.13
2022-10-22T14:40:18.984Z,1.02
2022-10-22T14:42:47.581Z,1.33
2022-10-22T14:45:19.220Z,1.10
2022-10-22T14:47:46.610Z,1.55
2022-10-22T14:50:15.013Z,0.88
2022-10-22T14:52:44.073Z,3.67
2022-10-22T14:55:12.794Z,6.25
2022-10-22T14:57:40.685Z,3.90
2022-10-22T15:00:10.456Z,4.65
2022-10-22T15:02:37.887Z,3.35
2022-10-22T15:05:05.883Z,1.85
2022-10-22T15:07:33.339Z,1.67
2022-10-22T15:10:00.755Z,1.27
2022-10-22T15:12:28.699Z,2.10
2022-10-22T15:14:56.118Z,1.80
2022-10-22T15:17:23.845Z,1.90
2022-10-22T15:19:51.311Z,1.65
2022-10-22T15:22:19.948Z,2.03
2022-10-22T15:24:49.139Z,2.65
2022-10-22T15:27:17.179Z,1.60
2022-10-22T15:29:44.691Z,2.28
2022-10-22T15:32:12.154Z,1.10
2022-10-22T15:34:40.853Z,2.00
2022-10-22T15:37:11.545Z,1.55
2022-10-22T15:39:42.780Z,1.13
2022-10-22T15:42:10.483Z,1.75
2022-10-22T15:44:38.286Z,1.83
2022-10-22T15:47:07.778Z,1.83
2022-10-22T15:49:37.476Z,1.73
2022-10-22T15:52:06.297Z,1.58
2022-10-22T15:54:34.061Z,2.13
2022-10-22T15:57:08.997Z,1.35
2022-10-22T15:59:36.768Z,1.83
2022-10-22T16:02:04.630Z,1.50
2022-10-22T16:04:32.096Z,1.58
2022-10-22T16:07:00.579Z,1.23
2022-10-22T16:09:28.277Z,2.08
2022-10-22T16:11:56.223Z,2.10
2022-10-22T16:14:24.249Z,1.67
2022-10-22T16:16:53.443Z,2.00
2022-10-22T16:19:21.829Z,2.05
2022-10-22T16:21:56.347Z,1.90
2022-10-22T16:24:24.224Z,1.98
2022-10-22T16:26:53.370Z,1.65
2022-10-22T16:29:20.982Z,2.13
2022-10-22T16:31:49.853Z,1.80
2022-10-22T16:34:17.275Z,1.25
2022-10-22T16:36:45.065Z,1.58
2022-10-22T16:39:16.081Z,1.75
2022-10-22T16:41:43.543Z,1.05
2022-10-22T16:44:10.994Z,2.67
2022-10-22T16:46:39.214Z,1.70
2022-10-22T16:49:07.231Z,2.35
2022-10-22T16:51:36.205Z,1.10
2022-10-22T16:54:06.802Z,1.90
2022-10-22T16:56:40.009Z,1.33
2022-10-22T16:59:07.878Z,5.95
2022-10-22T17:01:40.364Z,3.58
2022-10-22T17:04:08.764Z,4.80
2022-10-22T17:06:36.725Z,3.45
2022-10-22T17:09:05.165Z,4.63
2022-10-22T17:11:38.137Z,2.17
2022-10-22T17:23:16.795Z,1.92
2022-10-22T17:25:45.866Z,1.75
2022-10-22T17:28:13.784Z,1.67
2022-10-22T17:30:44.484Z,2.30
2022-10-22T17:33:12.184Z,2.03
2022-10-22T17:38:14.720Z,1.73
2022-10-22T17:40:59.849Z,2.13
2022-10-22T17:43:29.415Z,1.80
2022-10-22T17:46:16.079Z,2.38
2022-10-22T17:48:45.755Z,2.25
2022-10-22T17:51:14.344Z,1.52
2022-10-22T17:53:43.620Z,1.63
2022-10-22T17:56:11.689Z,1.88
2022-10-22T17:58:39.415Z,1.60
2022-10-22T18:01:07.290Z,1.88
2022-10-22T18:03:36.411Z,1.67
2022-10-22T18:06:08.056Z,2.10
2022-10-22T18:08:36.118Z,1.58
2022-10-22T18:11:10.793Z,2.22
2022-10-22T18:13:38.876Z,1.83
2022-10-22T18:16:06.530Z,1.75
2022-10-22T18:18:34.984Z,1.77
2022-10-22T18:21:02.875Z,1.80
2022-10-22T18:23:30.386Z,1.90
2022-10-22T18:25:57.851Z,1.75
2022-10-22T18:28:25.550Z,1.33
2022-10-22T18:30:52.987Z,1.67
2022-10-22T18:33:20.606Z,2.05
2022-10-22T18:35:48.314Z,1.55
2022-10-22T18:38:15.832Z,1.95
2022-10-22T18:40:47.228Z,2.00
2022-10-22T18:43:15.419Z,1.88
2022-10-22T18:45:46.370Z,1.90
2022-10-22T18:48:14.851Z,2.10
2022-10-22T18:50:47.951Z,2.05
2022-10-22T18:53:32.120Z,1.85
2022-10-22T18:55:59.655Z,2.05
2022-10-22T18:58:27.178Z,3.05
2022-10-22T19:00:54.751Z,2.08
2022-10-22T19:03:22.524Z,1.25
2022-10-22T19:05:51.724Z,1.83
2022-10-22T19:08:19.776Z,2.13
2022-10-22T19:10:47.869Z,2.15
2022-10-22T19:13:16.265Z,1.50
2022-10-22T19:15:43.782Z,2.28
2022-10-22T19:18:11.283Z,1.95
2022-10-22T19:20:38.720Z,2.10
2022-10-22T19:23:08.679Z,1.70
2022-10-22T19:25:36.172Z,2.05
2022-10-22T19:28:03.595Z,2.58
2022-10-22T19:30:31.198Z,2.15
2022-10-22T19:32:58.716Z,1.42
2022-10-22T19:35:26.110Z,1.98
2022-10-22T19:37:53.568Z,1.63
2022-10-22T19:40:21.250Z,2.97
2022-10-22T19:42:51.060Z,1.73
2022-10-22T19:45:18.879Z,1.80
2022-10-22T19:47:46.329Z,1.92
2022-10-22T19:50:13.770Z,1.85
2022-10-22T19:52:41.427Z,1.92
2022-10-22T19:55:11.217Z,1.75
2022-10-22T19:57:39.776Z,1.58
2022-10-22T20:00:07.776Z,2.78
2022-10-22T20:02:36.940Z,2.38
2022-10-22T20:05:04.644Z,2.55
2022-10-22T20:07:32.406Z,2.35
2022-10-22T20:09:59.790Z,2.42
2022-10-22T20:12:27.267Z,2.35
2022-10-22T20:14:54.746Z,2.53
2022-10-22T20:17:22.140Z,2.33
2022-10-22T20:19:49.631Z,3.08
2022-10-22T20:22:18.789Z,2.22
2022-10-22T20:24:46.799Z,2.67
2022-10-22T20:27:14.694Z,1.90
2022-10-22T20:29:42.220Z,2.97
2022-10-22T20:32:09.683Z,2.20
2022-10-22T20:34:37.874Z,2.33
2022-10-22T20:37:05.309Z,2.50
2022-10-22T20:39:33.400Z,2.40
2022-10-22T20:42:00.913Z,2.28
2022-10-22T20:44:28.438Z,2.78
2022-10-22T20:49:23.199Z,2.83
2022-10-22T20:51:50.779Z,2.42
2022-10-22T20:54:19.533Z,2.40
2022-10-22T20:56:48.509Z,1.63
2022-10-22T20:59:16.296Z,1.98
2022-10-22T21:01:45.311Z,3.33
2022-10-22T21:04:13.397Z,2.10
2022-10-22T21:06:42.353Z,2.10
2022-10-22T21:09:11.259Z,2.28
2022-10-22T21:11:39.638Z,2.45
2022-10-22T21:14:07.905Z,2.20
2022-10-22T21:16:35.424Z,2.25
2022-10-22T21:19:03.174Z,2.05
2022-10-22T21:21:30.630Z,1.90
2022-10-22T21:23:58.075Z,1.80
2022-10-22T21:26:25.552Z,1.90
2022-10-22T21:28:54.143Z,2.20
2022-10-22T21:31:26.605Z,2.00
2022-10-22T21:33:54.928Z,2.00
2022-10-22T21:36:23.577Z,2.95
2022-10-22T21:38:54.068Z,1.80
2022-10-22T21:41:23.684Z,1.65
2022-10-22T21:43:51.811Z,2.15
2022-10-22T21:46:23.344Z,2.28
2022-10-22T21:49:02.494Z,2.50
2022-10-22T21:51:30.859Z,2.17
2022-10-22T21:53:58.443Z,1.23
2022-10-22T21:56:30.298Z,2.10
2022-10-22T21:58:57.834Z,2.07
2022-10-22T22:01:28.133Z,1.80
2022-10-22T22:03:56.651Z,2.67
2022-10-22T22:06:26.332Z,2.63
2022-10-22T22:08:55.174Z,2.78
2022-10-22T22:11:24.605Z,2.40
2022-10-22T22:13:52.742Z,1.55
2022-10-22T22:16:25.404Z,2.50
2022-10-22T22:18:55.753Z,2.20
2022-10-22T22:21:23.247Z,2.65
2022-10-22T22:23:51.203Z,2.63
2022-10-22T22:26:24.054Z,2.22
2022-10-22T22:28:54.255Z,2.00
2022-10-22T22:31:26.602Z,2.10
2022-10-22T22:34:08.291Z,2.17
2022-10-22T22:36:36.743Z,2.28
2022-10-22T22:39:05.205Z,2.33
2022-10-22T22:41:32.863Z,2.20
2022-10-22T22:44:00.456Z,1.80
2022-10-22T22:46:28.570Z,2.17
2022-10-22T22:48:56.322Z,2.22
2022-10-22T22:51:24.021Z,3.10
2022-10-22T22:53:51.773Z,2.15
2022-10-22T22:56:20.976Z,2.35
2022-10-22T22:58:48.994Z,1.67
2022-10-22T23:01:21.419Z,3.92
2022-10-22T23:03:50.512Z,8.18
2022-10-22T23:06:19.089Z,8.05
2022-10-22T23:08:49.291Z,4.60
2022-10-22T23:11:17.459Z,4.82
2022-10-22T23:13:45.200Z,3.03
2022-10-22T23:16:20.232Z,3.10
2022-10-22T23:18:49.050Z,2.53
2022-10-22T23:21:17.978Z,2.70
2022-10-22T23:23:46.757Z,2.35
2022-10-22T23:26:14.783Z,2.65
2022-10-22T23:28:43.044Z,2.67
2022-10-22T23:31:14.378Z,2.42
2022-10-22T23:33:42.464Z,2.90
2022-10-22T23:36:10.219Z,3.15
2022-10-22T23:38:38.646Z,3.00
2022-10-22T23:41:07.295Z,2.55
2022-10-22T23:43:38.434Z,2.50
2022-10-22T23:46:06.547Z,3.03
2022-10-22T23:48:34.568Z,2.63
2022-10-22T23:51:09.145Z,2.15
2022-10-22T23:53:36.711Z,2.35
2022-10-22T23:56:08.508Z,2.95
2022-10-22T23:58:36.193Z,2.80
